createdAt,value
2019-04-06T00:02:21.558Z,18.90
2019-04-06T00:07:23.634Z,19.62
2019-04-06T00:12:25.715Z,19.62
2019-04-06T00:17:27.799Z,18.15
2019-04-06T00:22:29.807Z,18.98
2019-04-06T00:27:31.899Z,18.85
2019-04-06T00:32:44.843Z,18.85
2019-04-06T00:37:46.856Z,19.12
2019-04-06T00:42:48.887Z,17.45
2019-04-06T00:47:50.914Z,19.45
2019-04-06T00:52:52.932Z,18.60
2019-04-06T00:57:54.999Z,20.17
2019-04-06T01:02:57.026Z,18.77
2019-04-06T01:07:59.128Z,20.12
2019-04-06T01:13:01.232Z,20.12
2019-04-06T01:18:03.311Z,19.17
2019-04-06T01:23:05.357Z,20.30
2019-04-06T01:28:07.410Z,19.50
2019-04-06T01:33:09.456Z,19.35
2019-04-06T01:38:11.527Z,18.55
2019-04-06T01:43:13.620Z,19.85
2019-04-06T01:48:15.634Z,18.20
2019-04-06T01:53:17.711Z,17.55
2019-04-06T01:58:20.098Z,19.42
2019-04-06T02:03:22.213Z,17.65
2019-04-06T02:08:24.243Z,18.02
2019-04-06T02:13:26.368Z,18.48
2019-04-06T02:18:28.439Z,17.70
2019-04-06T02:23:30.642Z,17.67
2019-04-06T02:28:32.691Z,19.02
2019-04-06T02:34:09.455Z,17.90
2019-04-06T02:39:18.630Z,16.95
2019-04-06T02:44:21.035Z,17.32
2019-04-06T02:49:23.136Z,18.30
2019-04-06T02:54:25.294Z,17.73
2019-04-06T02:59:27.746Z,17.87
2019-04-06T03:04:29.814Z,17.45
2019-04-06T03:09:31.856Z,19.25
2019-04-06T03:14:33.954Z,19.25
2019-04-06T03:19:36.061Z,19.23
2019-04-06T03:24:38.121Z,18.35
2019-04-06T03:29:40.258Z,17.90
2019-04-06T03:34:42.357Z,18.15
2019-04-06T03:39:44.465Z,18.02
2019-04-06T03:44:46.514Z,18.82
2019-04-06T03:49:48.671Z,18.85
2019-04-06T03:54:50.762Z,18.37
2019-04-06T03:59:53.000Z,20.65
2019-04-06T04:04:55.062Z,19.77
2019-04-06T04:09:57.118Z,19.67
2019-04-06T04:14:59.557Z,19.10
2019-04-06T04:20:02.030Z,18.48
2019-04-06T04:25:04.535Z,18.45
2019-04-06T04:30:06.847Z,19.55
2019-04-06T04:35:09.039Z,18.55
2019-04-06T04:40:11.299Z,18.55
2019-04-06T04:45:13.622Z,19.25
2019-04-06T04:50:15.749Z,17.85
2019-04-06T04:55:17.766Z,19.10
2019-04-06T05:00:20.004Z,18.02
2019-04-06T05:05:22.434Z,19.27
2019-04-06T05:10:24.628Z,18.48
2019-04-06T05:16:20.711Z,19.17
2019-04-06T05:21:22.844Z,17.70
2019-04-06T05:26:24.871Z,19.50
2019-04-06T05:31:26.978Z,19.10
2019-04-06T05:36:29.047Z,18.12
2019-04-06T05:41:31.105Z,18.87
2019-04-06T05:46:34.518Z,19.00
2019-04-06T05:51:36.559Z,19.87
2019-04-06T05:56:38.625Z,19.20
2019-04-06T06:01:41.056Z,20.40
2019-04-06T06:06:43.120Z,18.50
2019-04-06T06:11:45.204Z,20.95
2019-04-06T06:16:47.295Z,19.25
2019-04-06T06:21:49.366Z,18.45
2019-04-06T06:26:51.405Z,19.87
2019-04-06T06:31:53.456Z,19.73
2019-04-06T06:36:55.527Z,19.92
2019-04-06T06:41:57.936Z,20.32
2019-04-06T06:46:59.992Z,19.23
2019-04-06T06:52:03.285Z,20.10
2019-04-06T06:57:05.494Z,21.55
2019-04-06T07:02:07.679Z,19.98
2019-04-06T07:07:09.742Z,19.00
2019-04-06T07:12:12.027Z,19.42
2019-04-06T07:17:14.135Z,19.27
2019-04-06T07:22:17.814Z,19.45
2019-04-06T07:27:20.165Z,21.52
2019-04-06T07:32:22.247Z,19.90
2019-04-06T07:37:24.270Z,20.60
2019-04-06T07:42:26.331Z,20.48
2019-04-06T07:47:28.367Z,20.68
2019-04-06T07:52:30.411Z,21.70
2019-04-06T07:57:32.486Z,21.73
2019-04-06T08:02:34.542Z,20.02
2019-04-06T08:07:36.617Z,20.30
2019-04-06T08:12:38.646Z,21.77
2019-04-06T08:17:40.830Z,20.57
2019-04-06T08:22:42.941Z,20.60
2019-04-06T08:27:45.020Z,21.82
2019-04-06T08:32:47.075Z,21.35
2019-04-06T08:37:49.158Z,20.32
2019-04-06T08:42:51.220Z,19.42
2019-04-06T08:47:53.290Z,19.52
2019-04-06T08:52:55.442Z,20.00
2019-04-06T08:57:57.551Z,19.82
2019-04-06T09:02:59.651Z,19.25
2019-04-06T09:08:01.686Z,19.52
2019-04-06T09:13:03.991Z,19.48
2019-04-06T09:18:06.087Z,20.05
2019-04-06T09:23:08.146Z,18.42
2019-04-06T09:28:10.259Z,20.25
2019-04-06T09:33:12.343Z,19.17
2019-04-06T09:38:20.247Z,19.75
2019-04-06T09:43:22.342Z,19.82
2019-04-06T09:48:43.189Z,19.62
2019-04-06T09:54:06.638Z,20.32
2019-04-06T09:59:35.275Z,20.40
2019-04-06T10:04:51.538Z,20.35
2019-04-06T10:10:08.833Z,21.52
2019-04-06T10:15:45.917Z,19.82
2019-04-06T10:21:25.752Z,21.35
2019-04-06T10:26:59.500Z,21.10
2019-04-06T10:32:23.299Z,20.43
2019-04-06T10:37:56.924Z,21.25
2019-04-06T10:43:36.851Z,21.00
2019-04-06T10:48:50.028Z,22.50
2019-04-06T10:54:20.354Z,20.62
2019-04-06T11:00:00.977Z,20.08
2019-04-06T11:05:20.690Z,20.82
2019-04-06T11:10:57.911Z,21.45
2019-04-06T11:16:18.446Z,20.68
2019-04-06T11:21:38.616Z,21.12
2019-04-06T11:26:53.601Z,19.82
2019-04-06T11:32:35.117Z,21.42
2019-04-06T11:38:03.452Z,20.43
2019-04-06T11:43:14.112Z,20.82
2019-04-06T11:48:45.739Z,20.17
2019-04-06T11:54:01.290Z,21.17
2019-04-06T11:59:13.864Z,19.40
2019-04-06T12:04:21.768Z,20.48
2019-04-06T12:09:40.724Z,16.20
2019-04-06T12:14:49.577Z,16.55
2019-04-06T12:20:20.168Z,18.52
2019-04-06T12:25:44.795Z,15.70
2019-04-06T12:31:06.493Z,14.65
2019-04-06T12:36:21.828Z,13.05
2019-04-06T12:41:42.662Z,14.10
2019-04-06T12:47:07.374Z,14.55
2019-04-06T12:52:24.475Z,14.35
2019-04-06T12:57:48.968Z,15.00
2019-04-06T13:03:09.364Z,15.35
2019-04-06T13:08:20.340Z,15.23
2019-04-06T13:13:44.955Z,13.70
2019-04-06T13:19:06.633Z,14.50
2019-04-06T13:24:34.047Z,13.62
2019-04-06T13:29:43.220Z,13.98
2019-04-06T13:35:08.014Z,14.07
2019-04-06T13:40:19.505Z,12.20
2019-04-06T13:45:50.413Z,13.53
2019-04-06T13:51:17.808Z,12.55
2019-04-06T13:56:42.398Z,14.95
2019-04-06T14:02:07.451Z,12.60
2019-04-06T14:07:20.377Z,12.23
2019-04-06T14:12:48.035Z,12.82
2019-04-06T14:18:28.014Z,13.15
2019-04-06T14:23:36.600Z,13.30
2019-04-06T14:29:10.557Z,14.13
2019-04-06T14:34:31.431Z,13.28
2019-04-06T14:39:59.530Z,13.20
2019-04-06T14:45:25.090Z,13.05
2019-04-06T14:50:56.116Z,22.15
2019-04-06T14:56:13.508Z,14.43
2019-04-06T15:01:42.143Z,12.78
2019-04-06T15:06:45.122Z,13.08
2019-04-06T15:11:56.325Z,12.75
2019-04-06T15:17:05.743Z,12.73
2019-04-06T15:22:25.583Z,13.03
2019-04-06T15:27:39.795Z,13.40
2019-04-06T15:32:48.844Z,12.90
2019-04-06T15:38:16.662Z,12.75
2019-04-06T15:43:37.554Z,13.62
2019-04-06T15:49:06.261Z,14.83
2019-04-06T15:54:26.178Z,12.95
2019-04-06T15:59:57.369Z,12.55
2019-04-06T16:05:28.053Z,13.05
2019-04-06T16:10:42.075Z,13.25
2019-04-06T16:16:01.154Z,13.15
2019-04-06T16:21:20.899Z,12.98
2019-04-06T16:26:37.966Z,13.50
2019-04-06T16:31:46.480Z,13.48
2019-04-06T16:37:06.928Z,12.80
2019-04-06T16:42:24.776Z,13.72
2019-04-06T16:47:49.495Z,13.93
2019-04-06T16:53:11.133Z,13.62
2019-04-06T16:58:31.713Z,12.98
2019-04-06T17:03:59.235Z,13.15
2019-04-06T17:09:20.967Z,13.18
2019-04-06T17:14:51.733Z,12.28
2019-04-06T17:20:31.795Z,13.43
2019-04-06T17:25:52.321Z,12.85
2019-04-06T17:31:20.003Z,12.95
2019-04-06T17:36:44.485Z,14.28
2019-04-06T17:41:56.762Z,12.90
2019-04-06T17:47:21.857Z,30.60
2019-04-06T17:52:38.474Z,17.57
2019-04-06T17:57:49.139Z,14.53
2019-04-06T18:03:22.714Z,13.30
2019-04-06T18:08:43.272Z,13.35
2019-04-06T18:13:52.197Z,14.65
2019-04-06T18:18:54.303Z,12.98
2019-04-06T18:23:56.456Z,15.13
2019-04-06T18:28:58.535Z,14.65
2019-04-06T18:34:00.557Z,14.05
2019-04-06T18:39:07.202Z,14.47
2019-04-06T18:44:09.291Z,13.98
2019-04-06T18:49:11.341Z,13.35
2019-04-06T18:54:13.345Z,13.35
2019-04-06T18:59:15.395Z,11.88
2019-04-06T19:04:17.427Z,12.90
2019-04-06T19:09:23.748Z,12.93
2019-04-06T19:14:23.762Z,14.18
2019-04-06T19:19:26.146Z,15.90
2019-04-06T19:24:28.391Z,15.50
2019-04-06T19:29:30.534Z,16.35
2019-04-06T19:34:32.634Z,16.97
2019-04-06T19:39:34.651Z,16.87
2019-04-06T19:44:37.200Z,16.73
2019-04-06T19:49:39.794Z,18.32
2019-04-06T19:54:42.364Z,16.93
2019-04-06T19:59:44.674Z,17.92
2019-04-06T20:04:46.790Z,18.67
2019-04-06T20:09:48.910Z,17.73
2019-04-06T20:14:50.988Z,17.10
2019-04-06T20:19:53.102Z,16.85
2019-04-06T20:24:55.221Z,17.20
2019-04-06T20:29:57.252Z,15.32
2019-04-06T20:34:59.528Z,17.62
2019-04-06T20:40:01.897Z,17.12
2019-04-06T20:45:04.807Z,16.05
2019-04-06T20:50:07.942Z,16.73
2019-04-06T20:55:10.220Z,16.87
2019-04-06T21:00:12.818Z,16.10
2019-04-06T21:05:14.926Z,16.02
2019-04-06T21:10:17.261Z,15.78
2019-04-06T21:15:21.187Z,16.15
2019-04-06T21:20:23.324Z,16.32
2019-04-06T21:25:25.370Z,16.80
2019-04-06T21:30:27.821Z,16.35
2019-04-06T21:35:30.267Z,17.05
2019-04-06T21:40:32.982Z,16.07
2019-04-06T21:45:35.515Z,17.37
2019-04-06T21:50:37.608Z,17.23
2019-04-06T21:55:40.025Z,17.67
2019-04-06T22:00:48.385Z,18.45
2019-04-06T22:05:50.676Z,18.92
2019-04-06T22:10:52.882Z,18.85
2019-04-06T22:15:55.564Z,19.42
2019-04-06T22:20:57.847Z,18.23
2019-04-06T22:26:00.449Z,19.82
2019-04-06T22:31:02.531Z,20.05
2019-04-06T22:36:04.621Z,20.02
2019-04-06T22:41:06.679Z,20.20
2019-04-06T22:46:09.270Z,20.23
2019-04-06T22:51:11.402Z,20.60
2019-04-06T22:56:13.483Z,20.52
2019-04-06T23:01:16.288Z,20.82
2019-04-06T23:06:24.438Z,20.52
2019-04-06T23:11:26.556Z,21.07
2019-04-06T23:16:28.687Z,21.57
2019-04-06T23:21:30.762Z,20.27
2019-04-06T23:26:32.947Z,20.85
2019-04-06T23:31:36.111Z,19.50
2019-04-06T23:36:38.228Z,20.92
2019-04-06T23:41:40.242Z,21.12
2019-04-06T23:46:42.774Z,20.35
2019-04-06T23:51:45.418Z,19.90
2019-04-06T23:56:47.641Z,20.37
